Time;durP1;ratioP1;P1;durP2;ratioP2;P2;SDS_P1;SDS_P2;PMS_P1;PMS_P2;Temp;Humidity;BMP_temperature;BMP_pressure;BME280_temperature;BME280_humidity;BME280_pressure;Samples;Min_cycle;Max_cycle;Signal;HPM_P1;HPM_P2
2022/12/12 00:00:26;;;;;;;49.38;29.05;;;-0.20;99.90;;;;;;5130173;27;20097;-42
2022/12/12 00:02:51;;;;;;;56.25;30.02;;;-0.10;99.90;;;;;;5134261;27;20205;-42
2022/12/12 00:05:18;;;;;;;52.20;30.73;;;-0.10;99.90;;;;;;5138381;27;20129;-44
2022/12/12 00:07:44;;;;;;;59.58;33.67;;;-0.10;99.90;;;;;;5138562;27;20058;-42
2022/12/12 00:10:10;;;;;;;67.57;34.75;;;0.00;99.90;;;;;;5138268;27;20571;-45
2022/12/12 00:12:35;;;;;;;64.88;37.10;;;0.00;99.90;;;;;;5131971;27;20570;-44
2022/12/12 00:15:02;;;;;;;71.53;38.42;;;-0.10;99.90;;;;;;5116768;27;20039;-42
2022/12/12 00:17:27;;;;;;;60.00;35.40;;;0.00;99.90;;;;;;5117954;27;20086;-42
2022/12/12 00:19:53;;;;;;;70.90;38.75;;;0.10;99.90;;;;;;5117621;27;20152;-45
2022/12/12 00:22:19;;;;;;;89.63;46.83;;;0.00;99.90;;;;;;5098322;27;20468;-42
2022/12/12 00:24:44;;;;;;;104.28;54.55;;;0.00;99.90;;;;;;5116917;27;20051;-43
2022/12/12 00:27:10;;;;;;;78.50;42.13;;;0.10;99.90;;;;;;5098797;27;20192;-45
2022/12/12 00:29:36;;;;;;;57.63;30.77;;;0.10;99.90;;;;;;5117980;27;20059;-44
2022/12/12 00:32:01;;;;;;;43.40;24.73;;;0.10;99.90;;;;;;5117694;27;20047;-42
2022/12/12 00:34:27;;;;;;;41.35;24.20;;;0.00;99.90;;;;;;5127020;27;20098;-45
2022/12/12 00:36:53;;;;;;;45.65;24.55;;;0.00;99.90;;;;;;5123546;27;20434;-42
2022/12/12 00:39:19;;;;;;;42.28;22.95;;;0.00;99.90;;;;;;5128843;27;20367;-43
2022/12/12 00:41:45;;;;;;;41.78;24.88;;;0.10;99.90;;;;;;5117324;27;20092;-44
2022/12/12 00:44:11;;;;;;;41.30;24.25;;;0.10;99.90;;;;;;5126843;27;20050;-43
2022/12/12 00:46:37;;;;;;;51.95;27.58;;;0.00;99.90;;;;;;5134714;27;20119;-44
2022/12/12 00:49:03;;;;;;;41.60;23.23;;;0.10;99.90;;;;;;5108806;27;20046;-45
2022/12/12 00:51:30;;;;;;;44.95;25.02;;;0.00;99.90;;;;;;5137739;27;20592;-42
2022/12/12 00:53:57;;;;;;;45.33;23.83;;;0.10;99.90;;;;;;5131945;27;20182;-43
2022/12/12 00:56:24;;;;;;;44.65;23.27;;;0.10;99.90;;;;;;5121807;27;20038;-44
2022/12/12 00:58:50;;;;;;;46.13;23.50;;;0.00;99.90;;;;;;5098375;27;20181;-44
2022/12/12 01:01:26;;;;;;;45.05;24.63;;;0.10;99.90;;;;;;5099787;27;20054;-43
2022/12/12 01:03:52;;;;;;;42.40;24.52;;;0.10;99.90;;;;;;5137096;27;20526;-46
2022/12/12 01:06:19;;;;;;;47.72;24.90;;;0.10;99.90;;;;;;5119436;27;20043;-43
2022/12/12 01:08:45;;;;;;;48.13;24.52;;;0.10;99.90;;;;;;5117700;27;20051;-43
2022/12/12 01:11:12;;;;;;;44.63;24.70;;;0.10;99.90;;;;;;5116964;27;20051;-43
2022/12/12 01:13:38;;;;;;;44.40;24.42;;;0.10;99.90;;;;;;5136812;27;20130;-46
2022/12/12 01:16:05;;;;;;;48.97;27.58;;;0.10;99.90;;;;;;5118483;27;20035;-44
2022/12/12 01:18:31;;;;;;;47.45;26.55;;;0.10;99.90;;;;;;5080872;27;20051;-43
2022/12/12 01:20:57;;;;;;;47.78;26.30;;;0.10;99.90;;;;;;5097523;27;20478;-44
2022/12/12 01:23:23;;;;;;;45.63;26.05;;;0.10;99.90;;;;;;5127725;27;20057;-44
2022/12/12 01:25:49;;;;;;;50.92;29.52;;;0.10;99.90;;;;;;5118444;27;20066;-44
2022/12/12 01:28:14;;;;;;;52.40;27.88;;;0.10;99.90;;;;;;5128550;27;20054;-45
2022/12/12 01:30:40;;;;;;;43.90;24.70;;;0.10;99.90;;;;;;5118746;27;20082;-45
2022/12/12 01:33:06;;;;;;;47.17;26.42;;;0.10;99.90;;;;;;5115713;27;20454;-42
2022/12/12 01:35:32;;;;;;;47.67;28.23;;;0.20;99.90;;;;;;5133704;27;20077;-42
2022/12/12 01:37:58;;;;;;;46.15;26.02;;;0.10;99.90;;;;;;5126719;27;20121;-44
2022/12/12 01:40:28;;;;;;;50.35;29.33;;;0.10;99.90;;;;;;5116907;27;20046;-41
2022/12/12 01:42:53;;;;;;;53.20;28.08;;;0.10;99.90;;;;;;5098084;28;20410;-43
2022/12/12 01:45:56;;;;;;;54.88;29.48;;;0.10;99.90;;;;;;5115929;27;20354;-45
2022/12/12 01:48:28;;;;;;;48.53;27.42;;;0.10;99.90;;;;;;5119901;27;20667;-42
2022/12/12 01:50:58;;;;;;;45.45;26.58;;;0.20;99.90;;;;;;5125979;27;20055;-43
2022/12/12 01:53:25;;;;;;;51.72;28.63;;;0.10;99.90;;;;;;5121751;27;20149;-42
2022/12/12 01:55:53;;;;;;;47.50;28.00;;;0.20;99.90;;;;;;5089271;28;20431;-44
2022/12/12 01:58:19;;;;;;;44.35;25.45;;;0.20;99.90;;;;;;5116682;27;20051;-45
2022/12/12 02:00:45;;;;;;;50.65;28.50;;;0.10;99.90;;;;;;5116530;27;20100;-45
2022/12/12 02:03:11;;;;;;;48.80;27.90;;;0.10;99.90;;;;;;5116333;27;20040;-43
2022/12/12 02:05:49;;;;;;;46.55;25.83;;;0.20;99.90;;;;;;5127595;27;20388;-42
2022/12/12 02:08:16;;;;;;;43.70;25.98;;;0.10;99.90;;;;;;5137310;27;20051;-44
2022/12/12 02:10:43;;;;;;;42.92;26.40;;;0.20;99.90;;;;;;5136943;27;20064;-45
2022/12/12 02:13:19;;;;;;;42.25;25.27;;;0.20;99.90;;;;;;5120430;27;20051;-42
2022/12/12 02:15:53;;;;;;;40.97;24.50;;;0.20;99.90;;;;;;5116971;27;20204;-43
2022/12/12 02:18:48;;;;;;;45.70;26.65;;;0.10;99.90;;;;;;5127164;27;20590;-45
2022/12/12 02:21:34;;;;;;;38.28;24.08;;;0.10;99.90;;;;;;5097895;27;20488;-42
2022/12/12 02:24:10;;;;;;;41.45;24.75;;;0.10;99.90;;;;;;5116346;27;20058;-45
2022/12/12 02:27:11;;;;;;;42.40;25.58;;;0.20;99.90;;;;;;5116231;27;20062;-47
2022/12/12 02:30:02;;;;;;;38.50;23.85;;;0.10;99.90;;;;;;5116197;27;20047;-42
2022/12/12 02:32:47;;;;;;;50.22;25.85;;;0.10;99.90;;;;;;5121632;27;20093;-44
2022/12/12 02:35:41;;;;;;;43.40;26.42;;;0.20;99.90;;;;;;5123914;27;20362;-42
2022/12/12 02:38:41;;;;;;;47.33;26.88;;;0.20;99.90;;;;;;5101871;27;20047;-45
2022/12/12 02:41:26;;;;;;;54.63;31.25;;;0.10;99.90;;;;;;5119767;27;20638;-43
2022/12/12 02:44:25;;;;;;;47.28;26.10;;;0.10;99.90;;;;;;5118271;27;20464;-44
2022/12/12 02:47:02;;;;;;;43.40;25.50;;;0.10;99.90;;;;;;5118592;27;20051;-44
2022/12/12 02:49:41;;;;;;;48.65;26.95;;;0.20;99.90;;;;;;5101375;27;20054;-42
2022/12/12 02:52:09;;;;;;;45.97;25.65;;;0.20;99.90;;;;;;5119949;27;20082;-43
2022/12/12 02:54:35;;;;;;;40.38;25.13;;;0.20;99.90;;;;;;5119225;27;20454;-47
2022/12/12 02:57:01;;;;;;;42.63;24.08;;;0.20;99.90;;;;;;5118717;27;20039;-45
2022/12/12 02:59:37;;;;;;;44.67;26.40;;;0.20;99.90;;;;;;5133842;27;20074;-45
2022/12/12 03:02:34;;;;;;;47.40;26.20;;;0.20;99.90;;;;;;5129299;27;20057;-47
2022/12/12 03:08:15;;;;;;;41.30;24.15;;;0.10;99.90;;;;;;5098063;27;20522;-43
2022/12/12 03:10:46;;;;;;;39.45;23.65;;;0.30;99.90;;;;;;5116619;27;20045;-44
2022/12/12 03:13:37;;;;;;;44.00;25.55;;;0.20;99.90;;;;;;5125808;27;20043;-44
2022/12/12 03:16:18;;;;;;;39.20;24.08;;;0.20;99.90;;;;;;5121446;27;20370;-45
2022/12/12 03:19:11;;;;;;;40.53;23.98;;;0.20;99.90;;;;;;5124818;27;20074;-46
2022/12/12 03:21:53;;;;;;;36.67;23.17;;;0.20;99.90;;;;;;5116980;27;20802;-45
2022/12/12 03:24:46;;;;;;;34.30;22.15;;;0.20;99.90;;;;;;5117629;27;20532;-47
2022/12/12 03:27:23;;;;;;;36.45;22.65;;;0.20;99.90;;;;;;5119636;27;20039;-44
2022/12/12 03:29:57;;;;;;;36.35;22.48;;;0.20;99.90;;;;;;5117314;27;20399;-45
2022/12/12 03:32:28;;;;;;;34.25;21.35;;;0.20;99.90;;;;;;5110517;27;20042;-47
2022/12/12 03:35:11;;;;;;;34.50;22.75;;;0.20;99.90;;;;;;5123493;27;20550;-47
2022/12/12 03:37:43;;;;;;;34.97;22.17;;;0.30;99.90;;;;;;5117333;27;20143;-42
2022/12/12 03:40:24;;;;;;;34.35;23.02;;;0.30;99.90;;;;;;5116744;27;20047;-44
2022/12/12 03:43:01;;;;;;;31.67;20.77;;;0.30;99.90;;;;;;5117524;27;20043;-43
2022/12/12 03:45:35;;;;;;;32.45;21.75;;;0.20;99.90;;;;;;5136390;27;20114;-42
2022/12/12 03:48:29;;;;;;;34.85;21.90;;;0.20;99.90;;;;;;5123494;27;20046;-43
2022/12/12 03:51:26;;;;;;;32.40;21.30;;;0.30;99.90;;;;;;5119039;27;20294;-46
2022/12/12 03:53:58;;;;;;;30.42;20.25;;;0.30;99.90;;;;;;5131069;27;20085;-44
2022/12/12 03:56:38;;;;;;;31.20;20.63;;;0.30;99.90;;;;;;5105423;27;20495;-44
2022/12/12 03:59:11;;;;;;;30.77;20.33;;;0.30;99.90;;;;;;5137244;27;20187;-45
2022/12/12 04:01:50;;;;;;;31.73;20.45;;;0.30;99.90;;;;;;5123561;27;20050;-42
2022/12/12 04:04:19;;;;;;;31.30;21.15;;;0.30;99.90;;;;;;5136766;27;20123;-43
2022/12/12 04:07:02;;;;;;;30.42;20.58;;;0.30;99.90;;;;;;5128911;27;20039;-42
2022/12/12 04:15:21;;;;;;;33.13;22.17;;;0.30;99.90;;;;;;5071135;28;20044;-45
2022/12/12 04:18:20;;;;;;;31.85;21.13;;;0.30;99.90;;;;;;5071062;28;20051;-43
2022/12/12 04:24:00;;;;;;;34.50;20.98;;;0.30;99.90;;;;;;5068927;28;20164;-46
2022/12/12 04:26:41;;;;;;;28.90;19.40;;;0.30;99.90;;;;;;5072341;28;20511;-44
2022/12/12 04:29:06;;;;;;;30.55;21.27;;;0.30;99.90;;;;;;5070642;28;20052;-43
2022/12/12 04:31:37;;;;;;;30.63;21.65;;;0.30;99.90;;;;;;5071811;28;20079;-46
2022/12/12 04:34:14;;;;;;;33.88;21.92;;;0.30;99.90;;;;;;5050468;28;20138;-46
2022/12/12 04:36:42;;;;;;;31.10;21.00;;;0.30;99.90;;;;;;5069496;28;20593;-51
2022/12/12 04:39:09;;;;;;;32.67;22.10;;;0.30;99.90;;;;;;5070361;28;20186;-45
2022/12/12 04:41:37;;;;;;;31.60;20.25;;;0.30;99.90;;;;;;5069436;28;20056;-46
2022/12/12 04:44:08;;;;;;;34.28;22.50;;;0.30;99.90;;;;;;5069620;28;20056;-46
2022/12/12 04:46:36;;;;;;;33.33;21.45;;;0.30;99.90;;;;;;5070410;28;20047;-43
2022/12/12 04:49:07;;;;;;;28.92;20.00;;;0.30;99.90;;;;;;5119987;27;20050;-44
2022/12/12 04:51:41;;;;;;;27.77;17.67;;;0.30;99.90;;;;;;5117838;27;20049;-45
2022/12/12 04:54:18;;;;;;;25.95;18.38;;;0.30;99.90;;;;;;5131866;27;20050;-42
2022/12/12 04:56:50;;;;;;;23.58;17.23;;;0.30;99.90;;;;;;5119728;27;20513;-43
2022/12/12 04:59:16;;;;;;;28.35;19.30;;;0.30;99.90;;;;;;5123190;27;20046;-45
2022/12/12 05:02:11;;;;;;;26.35;18.52;;;0.30;99.90;;;;;;5102648;27;20424;-43
2022/12/12 05:05:25;;;;;;;28.55;18.80;;;0.30;99.90;;;;;;5115760;27;20128;-43
2022/12/12 05:08:04;;;;;;;21.63;14.53;;;0.30;99.90;;;;;;5027839;28;20346;-44
2022/12/12 05:10:31;;;;;;;30.08;19.58;;;0.30;99.90;;;;;;5021156;28;20083;-43
2022/12/12 05:12:59;;;;;;;29.00;19.48;;;0.30;99.90;;;;;;5027454;28;20092;-42
2022/12/12 05:15:26;;;;;;;30.85;21.48;;;0.30;99.90;;;;;;5020390;28;20053;-43
2022/12/12 05:18:04;;;;;;;30.60;21.02;;;0.30;99.90;;;;;;4996226;28;20080;-44
2022/12/12 05:20:29;;;;;;;33.67;21.80;;;0.30;99.90;;;;;;4997282;28;20144;-43
2022/12/12 05:22:55;;;;;;;30.25;19.73;;;0.30;99.90;;;;;;5032385;28;20057;-44
2022/12/12 05:25:21;;;;;;;29.00;19.38;;;0.30;99.90;;;;;;5017009;28;20147;-44
2022/12/12 05:27:46;;;;;;;29.45;20.80;;;0.40;99.90;;;;;;5012893;28;20125;-42
2022/12/12 05:30:13;;;;;;;30.38;20.40;;;0.30;99.90;;;;;;5012865;28;20688;-45
2022/12/12 05:32:38;;;;;;;28.83;19.10;;;0.30;99.90;;;;;;5020420;28;20101;-45
2022/12/12 05:35:05;;;;;;;29.52;19.73;;;0.30;99.90;;;;;;5029424;28;20048;-44
2022/12/12 05:37:31;;;;;;;30.50;19.08;;;0.30;99.90;;;;;;5029481;28;20113;-44
2022/12/12 05:39:57;;;;;;;27.15;19.63;;;0.30;99.90;;;;;;5118917;27;20057;-41
2022/12/12 05:42:23;;;;;;;30.98;20.25;;;0.30;99.90;;;;;;5128055;27;20058;-43
2022/12/12 05:44:48;;;;;;;31.02;20.65;;;0.30;99.90;;;;;;5096760;27;20091;-44
2022/12/12 05:47:14;;;;;;;31.08;19.88;;;0.30;99.90;;;;;;5125472;27;20137;-43
2022/12/12 05:49:39;;;;;;;30.20;21.15;;;0.30;99.90;;;;;;5134310;27;20837;-42
2022/12/12 05:52:05;;;;;;;29.30;20.60;;;0.30;99.90;;;;;;5116317;27;20069;-44
2022/12/12 05:54:31;;;;;;;31.60;21.00;;;0.30;99.90;;;;;;5115145;27;20043;-42
2022/12/12 05:56:56;;;;;;;33.40;20.92;;;0.30;99.90;;;;;;5123502;27;20107;-44
2022/12/12 05:59:22;;;;;;;32.65;21.20;;;0.30;99.90;;;;;;5123566;27;20589;-43
2022/12/12 06:01:48;;;;;;;32.03;21.75;;;0.30;99.90;;;;;;5115453;27;20130;-45
2022/12/12 06:04:13;;;;;;;31.85;22.02;;;0.30;99.90;;;;;;5115794;27;20192;-45
2022/12/12 06:06:39;;;;;;;30.55;21.25;;;0.40;99.90;;;;;;5115482;27;20058;-46
2022/12/12 06:09:05;;;;;;;31.48;19.38;;;0.30;99.90;;;;;;5119987;27;20508;-43
2022/12/12 06:11:30;;;;;;;28.95;20.58;;;0.30;99.90;;;;;;5119252;27;20412;-45
2022/12/12 06:13:56;;;;;;;31.58;19.90;;;0.30;99.90;;;;;;5133515;27;20059;-43
2022/12/12 06:16:21;;;;;;;28.38;20.08;;;0.30;99.90;;;;;;5119420;27;20043;-43
2022/12/12 06:18:52;;;;;;;27.15;18.98;;;0.30;99.90;;;;;;5120528;27;20071;-44
2022/12/12 06:21:18;;;;;;;26.30;18.73;;;0.20;99.90;;;;;;5121241;27;20050;-44
2022/12/12 06:23:43;;;;;;;28.38;21.05;;;0.20;99.90;;;;;;5120411;27;20096;-43
2022/12/12 06:26:12;;;;;;;29.00;19.88;;;0.30;99.90;;;;;;5133418;27;20124;-45
2022/12/12 06:28:38;;;;;;;29.38;19.02;;;0.30;99.90;;;;;;5133663;27;20046;-44
2022/12/12 06:31:05;;;;;;;29.38;19.75;;;0.30;99.90;;;;;;5119864;27;20108;-41
2022/12/12 06:33:34;;;;;;;29.27;19.75;;;0.30;99.90;;;;;;5120718;27;20047;-42
2022/12/12 06:36:04;;;;;;;24.13;18.17;;;0.20;99.90;;;;;;5131604;27;20057;-45
2022/12/12 06:38:30;;;;;;;29.77;18.90;;;0.30;99.90;;;;;;5122113;27;20476;-45
2022/12/12 06:40:56;;;;;;;30.05;20.25;;;0.30;99.90;;;;;;5122339;27;20130;-43
2022/12/12 06:43:22;;;;;;;29.60;20.67;;;0.30;99.90;;;;;;5123833;27;20043;-44
2022/12/12 06:45:47;;;;;;;31.45;20.70;;;0.20;99.90;;;;;;5128523;27;20042;-44
2022/12/12 06:48:13;;;;;;;29.38;20.27;;;0.20;99.90;;;;;;5138675;27;20436;-43
2022/12/12 06:50:43;;;;;;;28.70;19.92;;;0.30;99.90;;;;;;5129354;27;20086;-42
2022/12/12 06:53:10;;;;;;;27.67;18.40;;;0.20;99.90;;;;;;5126288;27;20706;-42
2022/12/12 06:55:41;;;;;;;30.23;20.10;;;0.20;99.90;;;;;;5129873;27;20122;-47
2022/12/12 06:58:07;;;;;;;28.83;19.42;;;0.30;99.90;;;;;;5122214;27;20043;-42
2022/12/12 07:00:33;;;;;;;35.03;23.10;;;0.20;99.90;;;;;;5140675;27;20092;-47
2022/12/12 07:02:58;;;;;;;45.42;32.30;;;0.20;99.90;;;;;;5126883;27;20046;-44
2022/12/12 07:05:24;;;;;;;31.63;21.65;;;0.30;99.90;;;;;;5130055;27;20135;-42
2022/12/12 07:07:49;;;;;;;25.90;18.33;;;0.20;99.90;;;;;;5119211;27;20997;-42
2022/12/12 07:10:15;;;;;;;30.90;19.98;;;0.20;99.90;;;;;;5119167;27;20047;-44
2022/12/12 07:12:41;;;;;;;29.05;19.48;;;0.20;99.90;;;;;;5121195;27;20054;-43
2022/12/12 07:15:06;;;;;;;45.83;31.33;;;0.20;99.90;;;;;;5129716;27;20039;-42
2022/12/12 07:17:32;;;;;;;51.30;34.40;;;0.20;99.90;;;;;;5118946;27;20130;-45
2022/12/12 07:19:58;;;;;;;48.67;32.78;;;0.20;99.90;;;;;;5118989;27;20464;-43
2022/12/12 07:22:23;;;;;;;52.40;32.63;;;0.20;99.90;;;;;;5104481;27;20047;-43
2022/12/12 07:24:50;;;;;;;43.20;28.73;;;0.20;99.90;;;;;;5138831;27;20139;-45
2022/12/12 07:27:15;;;;;;;31.90;22.08;;;0.20;99.90;;;;;;5118017;27;20540;-45
2022/12/12 07:29:41;;;;;;;34.55;21.70;;;0.20;99.90;;;;;;5119284;27;20104;-42
2022/12/12 07:32:06;;;;;;;32.75;20.73;;;0.20;99.90;;;;;;5122185;27;20042;-42
2022/12/12 07:34:32;;;;;;;33.08;21.23;;;0.20;99.90;;;;;;5127968;27;20051;-46
2022/12/12 07:36:58;;;;;;;31.15;21.92;;;0.20;99.90;;;;;;5118580;27;20484;-43
2022/12/12 07:39:23;;;;;;;36.17;22.33;;;0.20;99.90;;;;;;5118588;27;20050;-43
2022/12/12 07:41:49;;;;;;;29.75;20.70;;;0.20;99.90;;;;;;5117889;27;20379;-43
2022/12/12 07:44:15;;;;;;;31.35;20.13;;;0.20;99.90;;;;;;5098823;27;20043;-42
2022/12/12 07:46:41;;;;;;;28.48;18.88;;;0.20;99.90;;;;;;5117110;27;20548;-42
2022/12/12 07:49:06;;;;;;;28.85;19.92;;;0.20;99.90;;;;;;5128841;27;20058;-42
2022/12/12 07:51:32;;;;;;;32.17;21.27;;;0.20;99.90;;;;;;5135939;27;20384;-45
2022/12/12 07:53:58;;;;;;;35.58;25.80;;;0.20;99.90;;;;;;5132920;27;20038;-44
2022/12/12 07:56:23;;;;;;;37.80;24.92;;;0.20;99.90;;;;;;5104587;27;20185;-45
2022/12/12 07:58:50;;;;;;;34.53;22.75;;;0.20;99.90;;;;;;5130067;27;20039;-43
2022/12/12 08:01:21;;;;;;;35.33;23.80;;;0.20;99.90;;;;;;5118292;27;20100;-45
2022/12/12 08:03:48;;;;;;;34.33;23.85;;;0.20;99.90;;;;;;5127537;27;20401;-44
2022/12/12 08:06:17;;;;;;;32.22;22.27;;;0.20;99.90;;;;;;5121067;27;20317;-42
2022/12/12 08:08:44;;;;;;;35.05;22.02;;;0.30;99.90;;;;;;5118087;27;20386;-42
2022/12/12 08:11:11;;;;;;;31.40;21.50;;;0.30;99.90;;;;;;5120929;27;20107;-45
2022/12/12 08:13:38;;;;;;;31.85;21.70;;;0.30;99.90;;;;;;5117794;27;20051;-42
2022/12/12 08:16:06;;;;;;;29.77;19.58;;;0.30;99.90;;;;;;5117175;27;20039;-45
2022/12/12 08:18:33;;;;;;;30.85;19.70;;;0.30;99.90;;;;;;5129370;27;20050;-44
2022/12/12 08:20:58;;;;;;;28.67;19.13;;;0.30;99.90;;;;;;5120629;27;20444;-45
2022/12/12 08:23:24;;;;;;;35.78;23.63;;;0.30;99.90;;;;;;5099394;27;20053;-43
2022/12/12 08:25:50;;;;;;;32.55;23.10;;;0.30;99.90;;;;;;5134851;27;20049;-43
2022/12/12 08:28:16;;;;;;;33.13;23.95;;;0.30;99.90;;;;;;5138211;27;20042;-43
2022/12/12 08:30:41;;;;;;;35.83;22.98;;;0.30;99.90;;;;;;5138281;27;20138;-43
2022/12/12 08:33:07;;;;;;;33.38;22.75;;;0.30;99.90;;;;;;5137660;27;20049;-42
2022/12/12 08:35:32;;;;;;;29.23;19.58;;;0.40;99.90;;;;;;5132707;27;20078;-48
2022/12/12 08:37:59;;;;;;;31.25;19.42;;;0.30;99.90;;;;;;5110669;27;20490;-44
2022/12/12 08:40:24;;;;;;;33.38;20.80;;;0.40;99.90;;;;;;5133100;27;20055;-44
2022/12/12 08:42:50;;;;;;;32.92;22.63;;;0.40;99.90;;;;;;5098364;27;20532;-45
2022/12/12 08:45:16;;;;;;;30.23;20.85;;;0.40;99.90;;;;;;5135585;27;20453;-46
2022/12/12 08:47:42;;;;;;;31.30;21.85;;;0.40;99.90;;;;;;5138202;27;20095;-43
2022/12/12 08:50:08;;;;;;;31.30;22.50;;;0.40;99.90;;;;;;5124150;27;20138;-44
2022/12/12 08:52:34;;;;;;;31.65;21.55;;;0.40;99.90;;;;;;5134288;27;20087;-43
2022/12/12 08:54:59;;;;;;;30.08;20.45;;;0.40;99.90;;;;;;5118166;27;20110;-45
2022/12/12 08:57:25;;;;;;;28.77;19.52;;;0.50;99.90;;;;;;5117154;27;20104;-48
2022/12/12 08:59:51;;;;;;;30.30;20.52;;;0.50;99.90;;;;;;5130398;27;20086;-46
2022/12/12 09:02:16;;;;;;;34.05;20.88;;;0.50;99.90;;;;;;5127429;27;20045;-46
2022/12/12 09:04:42;;;;;;;30.05;20.73;;;0.40;99.90;;;;;;5118645;27;20125;-46
2022/12/12 09:07:08;;;;;;;31.00;22.05;;;0.50;99.90;;;;;;5117479;27;20050;-44
2022/12/12 09:09:33;;;;;;;31.52;20.20;;;0.50;99.90;;;;;;5116956;27;20163;-47
2022/12/12 09:11:59;;;;;;;30.02;20.20;;;0.50;99.90;;;;;;5121732;27;20481;-52
2022/12/12 09:14:25;;;;;;;32.08;21.30;;;0.50;99.90;;;;;;5101199;27;20611;-44
2022/12/12 09:16:50;;;;;;;32.30;20.77;;;0.50;99.90;;;;;;5119234;27;20583;-43
2022/12/12 09:19:16;;;;;;;30.83;20.80;;;0.50;99.90;;;;;;5139637;27;20047;-45
2022/12/12 09:21:41;;;;;;;33.08;21.58;;;0.50;99.90;;;;;;5126171;27;20511;-45
2022/12/12 09:24:08;;;;;;;30.40;19.98;;;0.50;99.90;;;;;;5110207;27;20413;-43
2022/12/12 09:26:33;;;;;;;31.48;20.35;;;0.60;99.90;;;;;;5127571;27;20057;-42
2022/12/12 09:28:59;;;;;;;35.25;21.55;;;0.60;99.90;;;;;;5123095;27;20050;-45
2022/12/12 09:31:25;;;;;;;26.05;19.10;;;0.60;99.90;;;;;;5125623;27;20153;-41
2022/12/12 09:33:51;;;;;;;29.33;19.45;;;0.60;99.90;;;;;;5115631;27;20507;-45
2022/12/12 09:36:16;;;;;;;29.15;20.00;;;0.60;99.90;;;;;;5115413;27;20046;-44
2022/12/12 09:38:42;;;;;;;34.03;21.45;;;0.60;99.90;;;;;;5096887;27;20097;-45
2022/12/12 09:41:08;;;;;;;30.17;20.98;;;0.60;99.90;;;;;;5116132;27;20675;-43
2022/12/12 09:43:41;;;;;;;31.13;20.95;;;0.70;99.90;;;;;;5115068;27;20082;-47
2022/12/12 09:46:17;;;;;;;;;;;0.70;99.90;;;;;;5115600;27;20499;-44
2022/12/12 09:48:45;;;;;;;33.70;21.35;;;0.70;99.90;;;;;;5115847;27;20365;-42
2022/12/12 09:51:12;;;;;;;33.35;21.25;;;0.70;99.90;;;;;;5115334;27;20564;-44
2022/12/12 09:53:40;;;;;;;31.15;21.83;;;0.80;99.90;;;;;;5115567;27;20781;-44
2022/12/12 09:56:14;;;;;;;32.65;20.77;;;0.80;99.90;;;;;;5097299;28;20051;-42
2022/12/12 09:59:08;;;;;;;31.17;20.73;;;0.90;99.90;;;;;;5097846;28;20313;-44
2022/12/12 10:01:38;;;;;;;32.22;20.85;;;0.90;99.90;;;;;;5134388;27;20533;-44
2022/12/12 10:04:34;;;;;;;33.85;22.15;;;0.90;99.90;;;;;;5126720;27;20070;-42
2022/12/12 10:07:06;;;;;;;36.85;22.48;;;1.00;99.90;;;;;;5126084;27;20054;-44
2022/12/12 10:09:51;;;;;;;35.88;23.50;;;1.00;99.90;;;;;;5116928;27;20640;-48
2022/12/12 10:12:20;;;;;;;35.35;21.65;;;1.00;99.90;;;;;;5100999;28;20051;-42
2022/12/12 10:14:51;;;;;;;34.25;21.73;;;1.00;99.90;;;;;;5132580;27;20532;-46
2022/12/12 10:17:33;;;;;;;34.30;22.75;;;1.00;99.90;;;;;;5129410;27;20099;-45
2022/12/12 10:20:03;;;;;;;37.30;23.58;;;1.00;99.90;;;;;;5136055;27;20124;-45
2022/12/12 10:22:39;;;;;;;37.50;24.23;;;1.00;99.90;;;;;;5132764;27;20074;-45
2022/12/12 10:25:38;;;;;;;34.33;23.45;;;1.00;99.90;;;;;;5115669;27;20039;-46
2022/12/12 10:28:13;;;;;;;36.47;25.55;;;1.00;99.90;;;;;;5115971;27;20183;-43
2022/12/12 10:30:58;;;;;;;37.53;23.67;;;1.10;99.90;;;;;;5118899;27;20066;-43
2022/12/12 10:33:41;;;;;;;37.38;23.88;;;1.10;99.90;;;;;;5123543;27;20065;-45
2022/12/12 10:36:26;;;;;;;39.28;24.10;;;1.20;99.90;;;;;;5115473;27;20043;-43
2022/12/12 10:39:21;;;;;;;35.45;22.38;;;1.20;99.90;;;;;;5133503;27;20543;-43
2022/12/12 10:42:09;;;;;;;33.40;21.75;;;1.20;99.90;;;;;;5121547;27;20532;-42
2022/12/12 10:44:55;;;;;;;35.70;24.55;;;1.20;99.90;;;;;;5114598;27;20870;-45
2022/12/12 10:47:21;;;;;;;34.17;22.55;;;1.20;99.90;;;;;;5116023;27;20084;-43
2022/12/12 10:49:48;;;;;;;37.28;23.50;;;1.20;99.90;;;;;;5115780;27;20046;-42
2022/12/12 10:52:21;;;;;;;35.13;24.80;;;1.20;99.90;;;;;;5116344;27;20051;-48
2022/12/12 10:54:56;;;;;;;40.08;25.42;;;1.20;99.90;;;;;;5098718;27;20103;-43
2022/12/12 10:57:24;;;;;;;38.97;26.20;;;1.30;99.90;;;;;;5120186;27;20580;-44
2022/12/12 10:59:53;;;;;;;35.30;23.70;;;1.30;99.90;;;;;;5118935;27;20054;-44
2022/12/12 11:02:38;;;;;;;39.75;26.25;;;1.30;99.90;;;;;;5100546;27;20059;-44
2022/12/12 11:05:21;;;;;;;41.20;26.70;;;1.40;99.90;;;;;;5118607;27;20077;-43
2022/12/12 11:08:01;;;;;;;39.42;25.08;;;1.50;99.90;;;;;;5119391;27;20062;-41
2022/12/12 11:10:33;;;;;;;43.97;29.35;;;1.50;99.90;;;;;;5119283;27;20405;-42
2022/12/12 11:13:02;;;;;;;39.13;27.50;;;1.50;99.90;;;;;;5119081;27;20051;-44
2022/12/12 11:15:35;;;;;;;34.35;23.60;;;1.60;99.90;;;;;;5100467;27;20055;-44
2022/12/12 11:18:01;;;;;;;37.72;25.40;;;1.60;99.90;;;;;;5119368;27;20057;-45
2022/12/12 11:20:27;;;;;;;41.10;28.05;;;1.60;99.90;;;;;;5119121;27;20051;-42
2022/12/12 11:22:55;;;;;;;36.78;26.40;;;1.70;99.90;;;;;;5117689;27;20058;-44
2022/12/12 11:25:30;;;;;;;36.97;23.88;;;1.70;99.90;;;;;;5118240;27;20580;-44
2022/12/12 11:28:00;;;;;;;32.33;22.88;;;1.70;99.90;;;;;;5118843;27;20660;-43
2022/12/12 11:30:38;;;;;;;36.47;24.90;;;1.70;99.90;;;;;;5122246;27;20134;-45
2022/12/12 11:33:06;;;;;;;34.15;23.98;;;1.70;99.90;;;;;;5120595;27;20059;-43
2022/12/12 11:35:38;;;;;;;33.63;24.05;;;1.70;99.90;;;;;;5138739;27;20051;-43
2022/12/12 11:38:17;;;;;;;38.28;24.42;;;1.70;99.90;;;;;;5126258;27;20390;-43
2022/12/12 11:40:43;;;;;;;39.00;24.92;;;1.70;99.90;;;;;;5118381;27;20081;-44
2022/12/12 11:43:18;;;;;;;33.67;23.20;;;1.70;99.90;;;;;;5118028;27;20389;-42
2022/12/12 11:46:01;;;;;;;36.72;25.83;;;1.70;99.90;;;;;;5098922;27;20111;-43
2022/12/12 11:48:45;;;;;;;37.75;23.83;;;1.70;99.90;;;;;;5124219;27;20057;-44
2022/12/12 11:51:11;;;;;;;38.47;23.90;;;1.70;99.90;;;;;;5124174;27;20130;-43
2022/12/12 11:53:44;;;;;;;35.90;24.92;;;1.70;99.90;;;;;;5118019;27;20055;-49
2022/12/12 11:56:22;;;;;;;34.35;23.33;;;1.70;99.90;;;;;;5118006;27;20193;-43
2022/12/12 11:58:53;;;;;;;35.65;23.02;;;1.80;99.90;;;;;;5126765;27;20420;-44
2022/12/12 12:01:53;;;;;;;35.33;23.83;;;1.70;99.90;;;;;;5124879;27;20340;-45
2022/12/12 12:04:40;;;;;;;40.50;26.48;;;1.80;99.90;;;;;;5016662;28;20075;-42
2022/12/12 12:07:31;;;;;;;43.67;28.38;;;1.80;99.90;;;;;;5034254;28;20053;-45
2022/12/12 12:10:15;;;;;;;34.97;22.95;;;1.80;99.90;;;;;;5028011;28;20553;-44
2022/12/12 12:12:49;;;;;;;37.15;23.75;;;1.80;99.90;;;;;;4998030;28;20045;-42
2022/12/12 12:15:15;;;;;;;40.03;26.13;;;1.80;99.90;;;;;;5014396;28;20057;-45
2022/12/12 12:18:04;;;;;;;36.15;23.20;;;1.80;99.90;;;;;;5023182;28;20057;-43
2022/12/12 12:20:42;;;;;;;33.40;22.55;;;1.80;99.90;;;;;;5019798;28;20041;-45
2022/12/12 12:23:31;;;;;;;31.98;21.70;;;1.80;99.90;;;;;;5024667;28;20237;-42
2022/12/12 12:26:06;;;;;;;29.63;21.77;;;1.90;99.90;;;;;;5013969;28;20406;-42
2022/12/12 12:28:45;;;;;;;31.63;22.42;;;1.90;99.90;;;;;;5014395;28;20356;-45
2022/12/12 12:31:20;;;;;;;29.20;20.13;;;1.90;99.90;;;;;;5025508;28;20076;-46
2022/12/12 12:34:13;;;;;;;32.15;22.10;;;2.00;99.90;;;;;;5012937;28;20053;-45
2022/12/12 12:36:38;;;;;;;30.80;21.63;;;2.10;99.90;;;;;;5013551;28;20551;-44
2022/12/12 12:39:12;;;;;;;30.13;21.30;;;2.10;99.90;;;;;;5013241;28;20519;-45
2022/12/12 12:41:41;;;;;;;31.05;20.88;;;2.10;99.90;;;;;;5082066;27;20492;-43
2022/12/12 12:44:07;;;;;;;32.63;22.08;;;2.10;99.90;;;;;;5115994;27;20043;-43
2022/12/12 12:46:51;;;;;;;31.80;21.90;;;2.20;99.90;;;;;;5116864;27;20453;-44
2022/12/12 12:49:23;;;;;;;33.83;22.88;;;2.20;99.90;;;;;;5116977;27;20046;-45
2022/12/12 12:52:03;;;;;;;27.25;19.35;;;2.30;99.90;;;;;;5134214;27;20042;-49
2022/12/12 12:54:42;;;;;;;25.45;20.15;;;2.30;99.90;;;;;;5116276;27;20060;-47
2022/12/12 12:57:25;;;;;;;31.83;21.20;;;2.40;99.90;;;;;;5116820;27;20235;-46
2022/12/12 12:59:55;;;;;;;27.02;19.67;;;2.40;99.90;;;;;;5130270;27;20115;-44
2022/12/12 13:02:21;;;;;;;34.42;22.95;;;2.40;99.90;;;;;;5116043;27;20057;-43
2022/12/12 13:04:59;;;;;;;32.70;23.35;;;2.30;99.90;;;;;;5116262;27;20218;-46
2022/12/12 13:07:46;;;;;;;38.35;24.70;;;2.30;99.90;;;;;;5117386;27;20051;-47
2022/12/12 13:10:27;;;;;;;31.88;20.50;;;2.10;99.90;;;;;;5126155;27;20046;-45
2022/12/12 13:13:13;;;;;;;32.92;21.85;;;2.00;99.90;;;;;;5127375;27;20047;-47